sensor_id;sensor_type;location;lat;lon;timestamp;P1;durP1;ratioP1;P2;durP2;ratioP2
39890;SDS011;25564;53.312;9.790;2023-04-15T00:00:07;10.60;;;6.33;;
39890;SDS011;25564;53.312;9.790;2023-04-15T00:02:40;11.87;;;6.90;;
39890;SDS011;25564;53.312;9.790;2023-04-15T00:05:12;11.63;;;6.47;;
39890;SDS011;25564;53.312;9.790;2023-04-15T00:07:43;11.80;;;6.27;;
39890;SDS011;25564;53.312;9.790;2023-04-15T00:10:16;10.50;;;5.87;;
39890;SDS011;25564;53.312;9.790;2023-04-15T00:12:48;9.37;;;5.83;;
39890;SDS011;25564;53.312;9.790;2023-04-15T00:15:19;10.17;;;5.83;;
39890;SDS011;25564;53.312;9.790;2023-04-15T00:17:50;10.60;;;5.40;;
39890;SDS011;25564;53.312;9.790;2023-04-15T00:20:22;9.67;;;5.37;;
39890;SDS011;25564;53.312;9.790;2023-04-15T00:22:53;9.80;;;5.60;;
39890;SDS011;25564;53.312;9.790;2023-04-15T00:25:25;8.37;;;5.03;;
39890;SDS011;25564;53.312;9.790;2023-04-15T00:27:56;12.37;;;5.03;;
39890;SDS011;25564;53.312;9.790;2023-04-15T00:30:27;8.10;;;5.00;;
39890;SDS011;25564;53.312;9.790;2023-04-15T00:32:59;7.83;;;4.70;;
39890;SDS011;25564;53.312;9.790;2023-04-15T00:35:32;9.10;;;4.80;;
39890;SDS011;25564;53.312;9.790;2023-04-15T00:38:04;9.03;;;4.73;;
39890;SDS011;25564;53.312;9.790;2023-04-15T00:40:37;8.23;;;5.23;;
39890;SDS011;25564;53.312;9.790;2023-04-15T00:43:08;10.93;;;5.27;;
39890;SDS011;25564;53.312;9.790;2023-04-15T00:45:40;10.33;;;5.30;;
39890;SDS011;25564;53.312;9.790;2023-04-15T00:48:12;8.67;;;5.00;;
39890;SDS011;25564;53.312;9.790;2023-04-15T00:50:43;9.13;;;4.93;;
39890;SDS011;25564;53.312;9.790;2023-04-15T00:53:14;10.67;;;5.90;;
39890;SDS011;25564;53.312;9.790;2023-04-15T00:55:46;11.10;;;5.80;;
39890;SDS011;25564;53.312;9.790;2023-04-15T00:58:17;9.30;;;5.90;;
39890;SDS011;25564;53.312;9.790;2023-04-15T01:00:49;8.80;;;5.57;;
39890;SDS011;25564;53.312;9.790;2023-04-15T01:03:24;7.93;;;4.80;;
39890;SDS011;25564;53.312;9.790;2023-04-15T01:05:55;8.47;;;4.53;;
39890;SDS011;25564;53.312;9.790;2023-04-15T01:08:33;7.80;;;4.20;;
39890;SDS011;25564;53.312;9.790;2023-04-15T01:11:04;7.63;;;3.97;;
39890;SDS011;25564;53.312;9.790;2023-04-15T01:13:36;9.00;;;5.20;;
39890;SDS011;25564;53.312;9.790;2023-04-15T01:16:07;8.83;;;4.87;;
39890;SDS011;25564;53.312;9.790;2023-04-15T01:18:39;6.10;;;3.93;;
39890;SDS011;25564;53.312;9.790;2023-04-15T01:21:12;5.37;;;3.53;;
39890;SDS011;25564;53.312;9.790;2023-04-15T01:23:44;6.20;;;3.57;;
39890;SDS011;25564;53.312;9.790;2023-04-15T01:26:17;7.07;;;3.70;;
39890;SDS011;25564;53.312;9.790;2023-04-15T01:28:49;6.80;;;3.77;;
39890;SDS011;25564;53.312;9.790;2023-04-15T01:31:21;6.70;;;4.20;;
39890;SDS011;25564;53.312;9.790;2023-04-15T01:33:53;8.13;;;4.03;;
39890;SDS011;25564;53.312;9.790;2023-04-15T01:36:24;10.27;;;4.63;;
39890;SDS011;25564;53.312;9.790;2023-04-15T01:38:55;7.43;;;4.13;;
39890;SDS011;25564;53.312;9.790;2023-04-15T01:41:27;7.80;;;4.30;;
39890;SDS011;25564;53.312;9.790;2023-04-15T01:43:59;8.50;;;4.37;;
39890;SDS011;25564;53.312;9.790;2023-04-15T01:46:30;10.63;;;4.80;;
39890;SDS011;25564;53.312;9.790;2023-04-15T01:49:02;9.17;;;5.00;;
39890;SDS011;25564;53.312;9.790;2023-04-15T01:51:33;7.53;;;4.20;;
39890;SDS011;25564;53.312;9.790;2023-04-15T01:54:04;8.60;;;5.10;;
39890;SDS011;25564;53.312;9.790;2023-04-15T01:56:36;9.60;;;5.13;;
39890;SDS011;25564;53.312;9.790;2023-04-15T01:59:09;7.70;;;4.53;;
39890;SDS011;25564;53.312;9.790;2023-04-15T02:01:41;8.10;;;4.50;;
39890;SDS011;25564;53.312;9.790;2023-04-15T02:04:12;7.90;;;3.77;;
39890;SDS011;25564;53.312;9.790;2023-04-15T02:06:47;7.43;;;4.37;;
39890;SDS011;25564;53.312;9.790;2023-04-15T02:09:19;9.30;;;4.33;;
39890;SDS011;25564;53.312;9.790;2023-04-15T02:11:51;7.87;;;4.47;;
39890;SDS011;25564;53.312;9.790;2023-04-15T02:14:23;9.23;;;4.63;;
39890;SDS011;25564;53.312;9.790;2023-04-15T02:16:55;8.30;;;4.13;;
39890;SDS011;25564;53.312;9.790;2023-04-15T02:19:26;7.60;;;4.23;;
39890;SDS011;25564;53.312;9.790;2023-04-15T02:21:58;7.10;;;4.20;;
39890;SDS011;25564;53.312;9.790;2023-04-15T02:24:30;8.53;;;4.87;;
39890;SDS011;25564;53.312;9.790;2023-04-15T02:27:01;7.90;;;4.37;;
39890;SDS011;25564;53.312;9.790;2023-04-15T02:29:33;10.60;;;5.30;;
39890;SDS011;25564;53.312;9.790;2023-04-15T02:32:04;10.17;;;4.87;;
39890;SDS011;25564;53.312;9.790;2023-04-15T02:34:36;8.93;;;5.13;;
39890;SDS011;25564;53.312;9.790;2023-04-15T02:37:11;9.50;;;4.97;;
39890;SDS011;25564;53.312;9.790;2023-04-15T02:39:43;11.23;;;5.73;;
39890;SDS011;25564;53.312;9.790;2023-04-15T02:42:15;9.57;;;5.27;;
39890;SDS011;25564;53.312;9.790;2023-04-15T02:44:46;11.27;;;6.00;;
39890;SDS011;25564;53.312;9.790;2023-04-15T02:47:17;13.30;;;5.73;;
39890;SDS011;25564;53.312;9.790;2023-04-15T02:49:49;12.40;;;5.60;;
39890;SDS011;25564;53.312;9.790;2023-04-15T02:52:20;12.77;;;6.13;;
39890;SDS011;25564;53.312;9.790;2023-04-15T02:54:51;12.00;;;6.07;;
39890;SDS011;25564;53.312;9.790;2023-04-15T02:57:27;11.60;;;6.15;;
39890;SDS011;25564;53.312;9.790;2023-04-15T02:59:59;12.67;;;6.77;;
39890;SDS011;25564;53.312;9.790;2023-04-15T03:02:37;10.33;;;6.07;;
39890;SDS011;25564;53.312;9.790;2023-04-15T03:05:12;12.00;;;6.23;;
39890;SDS011;25564;53.312;9.790;2023-04-15T03:07:44;12.60;;;6.60;;
39890;SDS011;25564;53.312;9.790;2023-04-15T03:10:15;13.10;;;6.90;;
39890;SDS011;25564;53.312;9.790;2023-04-15T03:12:47;10.70;;;5.57;;
39890;SDS011;25564;53.312;9.790;2023-04-15T03:15:18;11.93;;;5.73;;
39890;SDS011;25564;53.312;9.790;2023-04-15T03:17:50;9.47;;;5.53;;
39890;SDS011;25564;53.312;9.790;2023-04-15T03:20:21;9.73;;;5.00;;
39890;SDS011;25564;53.312;9.790;2023-04-15T03:22:53;11.80;;;5.53;;
39890;SDS011;25564;53.312;9.790;2023-04-15T03:25:24;10.50;;;6.07;;
39890;SDS011;25564;53.312;9.790;2023-04-15T03:27:56;10.93;;;5.87;;
39890;SDS011;25564;53.312;9.790;2023-04-15T03:30:28;11.37;;;5.80;;
39890;SDS011;25564;53.312;9.790;2023-04-15T03:32:59;10.57;;;5.47;;
39890;SDS011;25564;53.312;9.790;2023-04-15T03:35:31;15.03;;;5.60;;
39890;SDS011;25564;53.312;9.790;2023-04-15T03:38:02;12.23;;;6.27;;
39890;SDS011;25564;53.312;9.790;2023-04-15T03:40:34;10.60;;;5.83;;
39890;SDS011;25564;53.312;9.790;2023-04-15T03:43:05;9.43;;;6.07;;
39890;SDS011;25564;53.312;9.790;2023-04-15T03:45:37;10.67;;;4.90;;
39890;SDS011;25564;53.312;9.790;2023-04-15T03:48:08;12.63;;;5.67;;
39890;SDS011;25564;53.312;9.790;2023-04-15T03:50:47;10.07;;;5.83;;
39890;SDS011;25564;53.312;9.790;2023-04-15T03:53:19;11.53;;;5.40;;
39890;SDS011;25564;53.312;9.790;2023-04-15T03:55:51;13.93;;;5.87;;
39890;SDS011;25564;53.312;9.790;2023-04-15T03:58:22;15.33;;;7.10;;
39890;SDS011;25564;53.312;9.790;2023-04-15T04:00:54;10.77;;;5.70;;
39890;SDS011;25564;53.312;9.790;2023-04-15T04:03:25;11.53;;;6.27;;
39890;SDS011;25564;53.312;9.790;2023-04-15T04:05:57;12.43;;;6.00;;
39890;SDS011;25564;53.312;9.790;2023-04-15T04:08:29;9.70;;;5.93;;
39890;SDS011;25564;53.312;9.790;2023-04-15T04:11:00;10.93;;;5.70;;
39890;SDS011;25564;53.312;9.790;2023-04-15T04:13:31;13.00;;;5.57;;
39890;SDS011;25564;53.312;9.790;2023-04-15T04:16:03;10.40;;;5.33;;
39890;SDS011;25564;53.312;9.790;2023-04-15T04:18:35;11.03;;;5.40;;
39890;SDS011;25564;53.312;9.790;2023-04-15T04:21:06;9.40;;;5.00;;
39890;SDS011;25564;53.312;9.790;2023-04-15T04:23:37;11.43;;;5.20;;
39890;SDS011;25564;53.312;9.790;2023-04-15T04:26:09;9.87;;;4.63;;
39890;SDS011;25564;53.312;9.790;2023-04-15T04:28:40;11.23;;;5.80;;
39890;SDS011;25564;53.312;9.790;2023-04-15T04:31:12;11.00;;;5.23;;
39890;SDS011;25564;53.312;9.790;2023-04-15T04:33:43;12.20;;;5.60;;
39890;SDS011;25564;53.312;9.790;2023-04-15T04:36:14;10.83;;;5.90;;
39890;SDS011;25564;53.312;9.790;2023-04-15T04:38:46;11.50;;;5.60;;
39890;SDS011;25564;53.312;9.790;2023-04-15T04:41:17;12.80;;;6.57;;
39890;SDS011;25564;53.312;9.790;2023-04-15T04:43:49;10.43;;;5.43;;
39890;SDS011;25564;53.312;9.790;2023-04-15T04:46:20;10.40;;;5.53;;
39890;SDS011;25564;53.312;9.790;2023-04-15T04:48:51;11.20;;;5.90;;
39890;SDS011;25564;53.312;9.790;2023-04-15T04:51:23;9.63;;;5.13;;
39890;SDS011;25564;53.312;9.790;2023-04-15T04:53:54;12.90;;;6.30;;
39890;SDS011;25564;53.312;9.790;2023-04-15T04:56:26;15.07;;;5.73;;
39890;SDS011;25564;53.312;9.790;2023-04-15T04:58:57;11.40;;;5.90;;
39890;SDS011;25564;53.312;9.790;2023-04-15T05:01:29;11.57;;;5.60;;
39890;SDS011;25564;53.312;9.790;2023-04-15T05:04:00;10.70;;;5.50;;
39890;SDS011;25564;53.312;9.790;2023-04-15T05:06:32;13.23;;;6.37;;
39890;SDS011;25564;53.312;9.790;2023-04-15T05:09:04;10.00;;;5.27;;
39890;SDS011;25564;53.312;9.790;2023-04-15T05:11:35;10.70;;;5.83;;
39890;SDS011;25564;53.312;9.790;2023-04-15T05:14:06;9.50;;;5.23;;
39890;SDS011;25564;53.312;9.790;2023-04-15T05:16:38;9.50;;;5.37;;
39890;SDS011;25564;53.312;9.790;2023-04-15T05:19:09;9.80;;;4.93;;
39890;SDS011;25564;53.312;9.790;2023-04-15T05:21:40;9.57;;;5.00;;
39890;SDS011;25564;53.312;9.790;2023-04-15T05:24:12;10.83;;;5.37;;
39890;SDS011;25564;53.312;9.790;2023-04-15T05:26:43;10.17;;;5.40;;
39890;SDS011;25564;53.312;9.790;2023-04-15T05:29:15;8.53;;;4.40;;
39890;SDS011;25564;53.312;9.790;2023-04-15T05:31:46;10.20;;;4.73;;
39890;SDS011;25564;53.312;9.790;2023-04-15T05:34:18;8.97;;;4.57;;
39890;SDS011;25564;53.312;9.790;2023-04-15T05:36:49;9.10;;;4.70;;
39890;SDS011;25564;53.312;9.790;2023-04-15T05:39:20;9.23;;;5.13;;
39890;SDS011;25564;53.312;9.790;2023-04-15T05:41:52;7.97;;;4.53;;
39890;SDS011;25564;53.312;9.790;2023-04-15T05:44:23;8.93;;;4.47;;
39890;SDS011;25564;53.312;9.790;2023-04-15T05:46:54;8.77;;;4.90;;
39890;SDS011;25564;53.312;9.790;2023-04-15T05:49:26;9.13;;;5.20;;
39890;SDS011;25564;53.312;9.790;2023-04-15T05:51:57;10.73;;;6.17;;
39890;SDS011;25564;53.312;9.790;2023-04-15T05:54:29;10.60;;;5.10;;
39890;SDS011;25564;53.312;9.790;2023-04-15T05:57:00;13.40;;;6.30;;
39890;SDS011;25564;53.312;9.790;2023-04-15T05:59:31;11.90;;;6.63;;
39890;SDS011;25564;53.312;9.790;2023-04-15T06:02:03;13.03;;;6.70;;
39890;SDS011;25564;53.312;9.790;2023-04-15T06:04:34;12.43;;;6.97;;
39890;SDS011;25564;53.312;9.790;2023-04-15T06:07:07;17.80;;;7.77;;
39890;SDS011;25564;53.312;9.790;2023-04-15T06:09:38;14.50;;;8.70;;
39890;SDS011;25564;53.312;9.790;2023-04-15T06:12:09;18.87;;;9.57;;
39890;SDS011;25564;53.312;9.790;2023-04-15T06:14:42;16.13;;;9.03;;
39890;SDS011;25564;53.312;9.790;2023-04-15T06:17:13;17.73;;;9.33;;
39890;SDS011;25564;53.312;9.790;2023-04-15T06:19:45;19.43;;;9.17;;
39890;SDS011;25564;53.312;9.790;2023-04-15T06:22:16;18.17;;;9.07;;
39890;SDS011;25564;53.312;9.790;2023-04-15T06:24:47;23.57;;;10.27;;
39890;SDS011;25564;53.312;9.790;2023-04-15T06:27:23;21.88;;;9.60;;
39890;SDS011;25564;53.312;9.790;2023-04-15T06:29:54;21.23;;;9.40;;
39890;SDS011;25564;53.312;9.790;2023-04-15T06:32:25;23.73;;;9.90;;
39890;SDS011;25564;53.312;9.790;2023-04-15T06:34:57;24.33;;;10.23;;
39890;SDS011;25564;53.312;9.790;2023-04-15T06:37:28;25.37;;;10.90;;
39890;SDS011;25564;53.312;9.790;2023-04-15T06:39:59;30.93;;;12.50;;
39890;SDS011;25564;53.312;9.790;2023-04-15T06:42:31;27.63;;;11.10;;
39890;SDS011;25564;53.312;9.790;2023-04-15T06:45:02;33.00;;;13.00;;
39890;SDS011;25564;53.312;9.790;2023-04-15T06:47:34;28.80;;;12.53;;
39890;SDS011;25564;53.312;9.790;2023-04-15T06:50:05;27.27;;;12.83;;
39890;SDS011;25564;53.312;9.790;2023-04-15T06:52:37;27.70;;;11.67;;
39890;SDS011;25564;53.312;9.790;2023-04-15T06:55:09;32.27;;;12.60;;
39890;SDS011;25564;53.312;9.790;2023-04-15T06:57:40;28.07;;;11.43;;
39890;SDS011;25564;53.312;9.790;2023-04-15T07:00:12;30.27;;;13.70;;
39890;SDS011;25564;53.312;9.790;2023-04-15T07:02:44;37.70;;;13.70;;
39890;SDS011;25564;53.312;9.790;2023-04-15T07:05:15;37.07;;;13.97;;
39890;SDS011;25564;53.312;9.790;2023-04-15T07:07:47;33.40;;;13.70;;
39890;SDS011;25564;53.312;9.790;2023-04-15T07:10:18;35.70;;;13.33;;
39890;SDS011;25564;53.312;9.790;2023-04-15T07:12:50;37.57;;;13.77;;
39890;SDS011;25564;53.312;9.790;2023-04-15T07:15:22;33.27;;;13.73;;
39890;SDS011;25564;53.312;9.790;2023-04-15T07:17:53;39.33;;;15.03;;
39890;SDS011;25564;53.312;9.790;2023-04-15T07:20:26;40.93;;;16.17;;
39890;SDS011;25564;53.312;9.790;2023-04-15T07:22:57;45.63;;;15.63;;
39890;SDS011;25564;53.312;9.790;2023-04-15T07:25:28;37.83;;;14.60;;
39890;SDS011;25564;53.312;9.790;2023-04-15T07:28:00;45.87;;;16.73;;
39890;SDS011;25564;53.312;9.790;2023-04-15T07:30:32;50.00;;;18.13;;
39890;SDS011;25564;53.312;9.790;2023-04-15T07:33:04;49.27;;;18.17;;
39890;SDS011;25564;53.312;9.790;2023-04-15T07:35:35;42.40;;;16.57;;
39890;SDS011;25564;53.312;9.790;2023-04-15T07:38:07;44.37;;;18.17;;
39890;SDS011;25564;53.312;9.790;2023-04-15T07:40:38;46.27;;;19.30;;
39890;SDS011;25564;53.312;9.790;2023-04-15T07:43:10;45.07;;;17.87;;
39890;SDS011;25564;53.312;9.790;2023-04-15T07:45:42;50.27;;;19.40;;
39890;SDS011;25564;53.312;9.790;2023-04-15T07:48:13;43.40;;;18.07;;
39890;SDS011;25564;53.312;9.790;2023-04-15T07:50:45;46.37;;;20.37;;
39890;SDS011;25564;53.312;9.790;2023-04-15T07:53:16;50.60;;;19.27;;
39890;SDS011;25564;53.312;9.790;2023-04-15T07:55:47;43.10;;;18.63;;
39890;SDS011;25564;53.312;9.790;2023-04-15T07:58:19;42.70;;;18.93;;
39890;SDS011;25564;53.312;9.790;2023-04-15T08:00:50;49.33;;;21.47;;
39890;SDS011;25564;53.312;9.790;2023-04-15T08:03:22;49.93;;;21.40;;
39890;SDS011;25564;53.312;9.790;2023-04-15T08:05:53;48.73;;;20.70;;
39890;SDS011;25564;53.312;9.790;2023-04-15T08:08:25;51.30;;;20.60;;
39890;SDS011;25564;53.312;9.790;2023-04-15T08:10:57;46.10;;;21.17;;
39890;SDS011;25564;53.312;9.790;2023-04-15T08:13:29;48.07;;;21.73;;
39890;SDS011;25564;53.312;9.790;2023-04-15T08:16:15;48.83;;;21.87;;
39890;SDS011;25564;53.312;9.790;2023-04-15T08:18:50;45.80;;;20.07;;
39890;SDS011;25564;53.312;9.790;2023-04-15T08:21:22;48.70;;;20.73;;
39890;SDS011;25564;53.312;9.790;2023-04-15T08:23:54;49.47;;;23.07;;
39890;SDS011;25564;53.312;9.790;2023-04-15T08:26:26;50.87;;;22.07;;
39890;SDS011;25564;53.312;9.790;2023-04-15T08:28:57;55.27;;;24.17;;
39890;SDS011;25564;53.312;9.790;2023-04-15T08:31:29;52.23;;;24.73;;
39890;SDS011;25564;53.312;9.790;2023-04-15T08:34:00;56.20;;;23.97;;
39890;SDS011;25564;53.312;9.790;2023-04-15T08:36:32;54.93;;;23.40;;
39890;SDS011;25564;53.312;9.790;2023-04-15T08:39:03;56.60;;;23.90;;
39890;SDS011;25564;53.312;9.790;2023-04-15T08:41:45;46.40;;;20.33;;
39890;SDS011;25564;53.312;9.790;2023-04-15T08:44:20;47.03;;;21.00;;
39890;SDS011;25564;53.312;9.790;2023-04-15T08:46:53;44.57;;;20.27;;
39890;SDS011;25564;53.312;9.790;2023-04-15T08:49:27;52.93;;;23.03;;
39890;SDS011;25564;53.312;9.790;2023-04-15T08:51:59;51.40;;;22.30;;
39890;SDS011;25564;53.312;9.790;2023-04-15T08:54:31;52.70;;;22.87;;
39890;SDS011;25564;53.312;9.790;2023-04-15T08:57:04;44.70;;;21.70;;
39890;SDS011;25564;53.312;9.790;2023-04-15T08:59:36;50.33;;;23.83;;
39890;SDS011;25564;53.312;9.790;2023-04-15T09:02:07;53.07;;;23.00;;
39890;SDS011;25564;53.312;9.790;2023-04-15T09:04:39;47.03;;;23.13;;
39890;SDS011;25564;53.312;9.790;2023-04-15T09:07:10;49.50;;;20.80;;
39890;SDS011;25564;53.312;9.790;2023-04-15T09:09:42;51.63;;;22.47;;
39890;SDS011;25564;53.312;9.790;2023-04-15T09:12:13;52.67;;;22.60;;
39890;SDS011;25564;53.312;9.790;2023-04-15T09:14:45;52.97;;;22.60;;
39890;SDS011;25564;53.312;9.790;2023-04-15T09:17:17;59.63;;;25.20;;
39890;SDS011;25564;53.312;9.790;2023-04-15T09:20:06;55.03;;;23.73;;
39890;SDS011;25564;53.312;9.790;2023-04-15T09:22:41;56.97;;;25.57;;
39890;SDS011;25564;53.312;9.790;2023-04-15T09:27:48;54.23;;;22.23;;
39890;SDS011;25564;53.312;9.790;2023-04-15T09:30:19;56.20;;;23.97;;
39890;SDS011;25564;53.312;9.790;2023-04-15T09:32:52;50.00;;;21.97;;
39890;SDS011;25564;53.312;9.790;2023-04-15T09:40:34;57.87;;;24.83;;
39890;SDS011;25564;53.312;9.790;2023-04-15T09:43:07;67.07;;;27.03;;
39890;SDS011;25564;53.312;9.790;2023-04-15T09:45:40;61.63;;;25.67;;
39890;SDS011;25564;53.312;9.790;2023-04-15T09:48:22;53.23;;;23.90;;
39890;SDS011;25564;53.312;9.790;2023-04-15T09:50:57;53.15;;;24.17;;
39890;SDS011;25564;53.312;9.790;2023-04-15T09:53:32;56.97;;;26.43;;
39890;SDS011;25564;53.312;9.790;2023-04-15T09:56:05;58.77;;;26.80;;
39890;SDS011;25564;53.312;9.790;2023-04-15T09:58:38;55.07;;;24.47;;
39890;SDS011;25564;53.312;9.790;2023-04-15T10:01:09;57.37;;;26.43;;
39890;SDS011;25564;53.312;9.790;2023-04-15T10:03:41;59.27;;;25.20;;
39890;SDS011;25564;53.312;9.790;2023-04-15T10:06:14;54.03;;;24.43;;
39890;SDS011;25564;53.312;9.790;2023-04-15T10:08:46;50.23;;;25.43;;
39890;SDS011;25564;53.312;9.790;2023-04-15T10:11:18;54.37;;;24.13;;
39890;SDS011;25564;53.312;9.790;2023-04-15T10:13:53;51.23;;;24.03;;
39890;SDS011;25564;53.312;9.790;2023-04-15T10:16:26;54.00;;;23.50;;
39890;SDS011;25564;53.312;9.790;2023-04-15T10:19:01;53.00;;;24.60;;
39890;SDS011;25564;53.312;9.790;2023-04-15T10:21:35;55.43;;;25.47;;
39890;SDS011;25564;53.312;9.790;2023-04-15T10:24:07;49.50;;;23.97;;
39890;SDS011;25564;53.312;9.790;2023-04-15T10:26:39;51.07;;;22.67;;
39890;SDS011;25564;53.312;9.790;2023-04-15T10:29:11;48.20;;;23.93;;
39890;SDS011;25564;53.312;9.790;2023-04-15T10:31:43;47.60;;;23.77;;
39890;SDS011;25564;53.312;9.790;2023-04-15T10:34:15;48.47;;;21.87;;
39890;SDS011;25564;53.312;9.790;2023-04-15T10:36:47;50.07;;;24.50;;
39890;SDS011;25564;53.312;9.790;2023-04-15T10:42:15;51.78;;;24.27;;
39890;SDS011;25564;53.312;9.790;2023-04-15T10:44:48;44.30;;;22.93;;
39890;SDS011;25564;53.312;9.790;2023-04-15T10:47:21;50.23;;;23.40;;
39890;SDS011;25564;53.312;9.790;2023-04-15T10:49:57;45.37;;;22.53;;
39890;SDS011;25564;53.312;9.790;2023-04-15T10:52:30;50.83;;;22.77;;
39890;SDS011;25564;53.312;9.790;2023-04-15T10:57:36;40.00;;;21.00;;
39890;SDS011;25564;53.312;9.790;2023-04-15T11:00:13;44.40;;;22.90;;
39890;SDS011;25564;53.312;9.790;2023-04-15T11:02:53;43.73;;;20.90;;
39890;SDS011;25564;53.312;9.790;2023-04-15T11:08:10;43.70;;;21.43;;
39890;SDS011;25564;53.312;9.790;2023-04-15T11:13:14;40.67;;;20.60;;
39890;SDS011;25564;53.312;9.790;2023-04-15T11:15:48;41.73;;;20.37;;
39890;SDS011;25564;53.312;9.790;2023-04-15T11:18:21;42.20;;;19.93;;
39890;SDS011;25564;53.312;9.790;2023-04-15T11:21:03;43.60;;;21.63;;
39890;SDS011;25564;53.312;9.790;2023-04-15T11:23:37;40.03;;;19.57;;
39890;SDS011;25564;53.312;9.790;2023-04-15T11:26:17;34.20;;;20.47;;
39890;SDS011;25564;53.312;9.790;2023-04-15T11:28:49;39.27;;;20.93;;
39890;SDS011;25564;53.312;9.790;2023-04-15T11:31:20;40.40;;;20.33;;
39890;SDS011;25564;53.312;9.790;2023-04-15T11:33:55;34.03;;;18.90;;
39890;SDS011;25564;53.312;9.790;2023-04-15T11:36:29;29.97;;;18.63;;
39890;SDS011;25564;53.312;9.790;2023-04-15T11:39:03;36.43;;;18.97;;
39890;SDS011;25564;53.312;9.790;2023-04-15T11:41:37;34.45;;;18.38;;
39890;SDS011;25564;53.312;9.790;2023-04-15T11:44:15;34.33;;;20.67;;
39890;SDS011;25564;53.312;9.790;2023-04-15T11:46:47;35.47;;;18.53;;
39890;SDS011;25564;53.312;9.790;2023-04-15T11:49:28;30.80;;;18.17;;
39890;SDS011;25564;53.312;9.790;2023-04-15T11:52:01;32.23;;;17.20;;
39890;SDS011;25564;53.312;9.790;2023-04-15T11:54:41;32.50;;;18.33;;
39890;SDS011;25564;53.312;9.790;2023-04-15T11:57:12;33.43;;;19.17;;
39890;SDS011;25564;53.312;9.790;2023-04-15T11:59:44;31.77;;;17.87;;
39890;SDS011;25564;53.312;9.790;2023-04-15T12:02:16;28.93;;;16.97;;
39890;SDS011;25564;53.312;9.790;2023-04-15T12:04:47;29.37;;;16.87;;
39890;SDS011;25564;53.312;9.790;2023-04-15T12:07:19;31.10;;;17.83;;
39890;SDS011;25564;53.312;9.790;2023-04-15T12:09:54;30.37;;;16.20;;
39890;SDS011;25564;53.312;9.790;2023-04-15T12:12:27;29.42;;;16.35;;
39890;SDS011;25564;53.312;9.790;2023-04-15T12:14:59;27.07;;;15.77;;
39890;SDS011;25564;53.312;9.790;2023-04-15T12:17:30;24.03;;;14.50;;
39890;SDS011;25564;53.312;9.790;2023-04-15T12:20:24;17.43;;;10.77;;
39890;SDS011;25564;53.312;9.790;2023-04-15T12:23:04;17.00;;;11.17;;
39890;SDS011;25564;53.312;9.790;2023-04-15T12:25:36;17.97;;;10.50;;
39890;SDS011;25564;53.312;9.790;2023-04-15T12:28:10;19.27;;;10.00;;
39890;SDS011;25564;53.312;9.790;2023-04-15T12:30:49;20.07;;;11.97;;
39890;SDS011;25564;53.312;9.790;2023-04-15T12:33:21;17.70;;;11.03;;
39890;SDS011;25564;53.312;9.790;2023-04-15T12:35:53;19.40;;;10.23;;
39890;SDS011;25564;53.312;9.790;2023-04-15T12:38:24;20.90;;;9.87;;
39890;SDS011;25564;53.312;9.790;2023-04-15T12:40:55;16.63;;;8.63;;
39890;SDS011;25564;53.312;9.790;2023-04-15T12:43:28;17.50;;;8.93;;
39890;SDS011;25564;53.312;9.790;2023-04-15T12:45:59;13.50;;;8.17;;
39890;SDS011;25564;53.312;9.790;2023-04-15T12:48:30;15.63;;;8.70;;
39890;SDS011;25564;53.312;9.790;2023-04-15T12:51:03;14.47;;;8.50;;
39890;SDS011;25564;53.312;9.790;2023-04-15T12:53:36;13.43;;;8.67;;
39890;SDS011;25564;53.312;9.790;2023-04-15T12:56:07;12.87;;;8.37;;
39890;SDS011;25564;53.312;9.790;2023-04-15T12:58:38;15.43;;;8.63;;
39890;SDS011;25564;53.312;9.790;2023-04-15T13:01:10;13.87;;;8.60;;
39890;SDS011;25564;53.312;9.790;2023-04-15T13:03:41;14.33;;;8.10;;
39890;SDS011;25564;53.312;9.790;2023-04-15T13:06:13;12.03;;;8.47;;
39890;SDS011;25564;53.312;9.790;2023-04-15T13:08:44;12.97;;;7.70;;
39890;SDS011;25564;53.312;9.790;2023-04-15T13:11:28;15.87;;;10.17;;
39890;SDS011;25564;53.312;9.790;2023-04-15T13:14:07;20.80;;;11.60;;
39890;SDS011;25564;53.312;9.790;2023-04-15T13:16:39;15.00;;;9.73;;
39890;SDS011;25564;53.312;9.790;2023-04-15T13:19:11;14.93;;;10.10;;
39890;SDS011;25564;53.312;9.790;2023-04-15T13:21:42;13.03;;;8.03;;
39890;SDS011;25564;53.312;9.790;2023-04-15T13:24:14;12.10;;;7.30;;
39890;SDS011;25564;53.312;9.790;2023-04-15T13:26:45;12.63;;;7.70;;
39890;SDS011;25564;53.312;9.790;2023-04-15T13:29:20;13.90;;;8.43;;
39890;SDS011;25564;53.312;9.790;2023-04-15T13:31:52;15.57;;;7.57;;
39890;SDS011;25564;53.312;9.790;2023-04-15T13:34:23;12.37;;;7.00;;
39890;SDS011;25564;53.312;9.790;2023-04-15T13:36:55;11.00;;;7.60;;
39890;SDS011;25564;53.312;9.790;2023-04-15T13:39:26;13.23;;;7.30;;
39890;SDS011;25564;53.312;9.790;2023-04-15T13:41:58;11.67;;;7.97;;
39890;SDS011;25564;53.312;9.790;2023-04-15T13:44:29;12.37;;;7.60;;
39890;SDS011;25564;53.312;9.790;2023-04-15T13:47:01;13.83;;;7.43;;
39890;SDS011;25564;53.312;9.790;2023-04-15T13:49:32;12.47;;;8.00;;
39890;SDS011;25564;53.312;9.790;2023-04-15T13:52:03;10.73;;;7.80;;
39890;SDS011;25564;53.312;9.790;2023-04-15T13:54:35;10.80;;;6.57;;
39890;SDS011;25564;53.312;9.790;2023-04-15T13:57:08;11.20;;;6.87;;
39890;SDS011;25564;53.312;9.790;2023-04-15T13:59:39;8.87;;;6.57;;
39890;SDS011;25564;53.312;9.790;2023-04-15T14:02:11;12.13;;;6.77;;
39890;SDS011;25564;53.312;9.790;2023-04-15T14:04:42;11.90;;;7.60;;
39890;SDS011;25564;53.312;9.790;2023-04-15T14:07:13;11.60;;;6.63;;
39890;SDS011;25564;53.312;9.790;2023-04-15T14:09:45;10.47;;;6.63;;
39890;SDS011;25564;53.312;9.790;2023-04-15T14:12:18;11.77;;;6.73;;
39890;SDS011;25564;53.312;9.790;2023-04-15T14:14:49;10.90;;;7.23;;
39890;SDS011;25564;53.312;9.790;2023-04-15T14:17:21;12.43;;;7.60;;
39890;SDS011;25564;53.312;9.790;2023-04-15T14:19:52;13.00;;;7.33;;
39890;SDS011;25564;53.312;9.790;2023-04-15T14:22:23;10.60;;;6.83;;
39890;SDS011;25564;53.312;9.790;2023-04-15T14:24:55;10.90;;;6.73;;
39890;SDS011;25564;53.312;9.790;2023-04-15T14:27:27;13.73;;;7.93;;
39890;SDS011;25564;53.312;9.790;2023-04-15T14:29:58;12.53;;;7.73;;
39890;SDS011;25564;53.312;9.790;2023-04-15T14:32:30;10.03;;;6.87;;
39890;SDS011;25564;53.312;9.790;2023-04-15T14:35:01;11.10;;;7.17;;
39890;SDS011;25564;53.312;9.790;2023-04-15T14:37:34;11.87;;;7.67;;
39890;SDS011;25564;53.312;9.790;2023-04-15T14:40:06;10.60;;;7.17;;
39890;SDS011;25564;53.312;9.790;2023-04-15T14:42:38;13.27;;;7.70;;
39890;SDS011;25564;53.312;9.790;2023-04-15T14:45:09;14.27;;;6.90;;
39890;SDS011;25564;53.312;9.790;2023-04-15T14:47:40;10.33;;;7.10;;
39890;SDS011;25564;53.312;9.790;2023-04-15T14:50:12;11.17;;;7.60;;
39890;SDS011;25564;53.312;9.790;2023-04-15T14:52:43;11.27;;;7.47;;
39890;SDS011;25564;53.312;9.790;2023-04-15T14:55:15;9.90;;;6.83;;
39890;SDS011;25564;53.312;9.790;2023-04-15T14:57:47;10.30;;;6.90;;
39890;SDS011;25564;53.312;9.790;2023-04-15T15:00:18;9.10;;;6.17;;
39890;SDS011;25564;53.312;9.790;2023-04-15T15:02:49;14.37;;;6.73;;
39890;SDS011;25564;53.312;9.790;2023-04-15T15:05:21;26.23;;;13.73;;
39890;SDS011;25564;53.312;9.790;2023-04-15T15:07:52;10.63;;;7.23;;
39890;SDS011;25564;53.312;9.790;2023-04-15T15:10:24;11.00;;;7.50;;
39890;SDS011;25564;53.312;9.790;2023-04-15T15:13:15;10.20;;;6.43;;
39890;SDS011;25564;53.312;9.790;2023-04-15T15:15:47;12.87;;;8.33;;
39890;SDS011;25564;53.312;9.790;2023-04-15T15:18:20;9.77;;;6.43;;